sensor_id;sensor_type;location;lat;lon;timestamp;temperature;humidity
54930;DHT22;40833;53.238;6.576;2023-05-10T00:00:43;13.30;99.90
54930;DHT22;40833;53.238;6.576;2023-05-10T00:03:08;13.10;99.90
54930;DHT22;40833;53.238;6.576;2023-05-10T00:05:34;13.20;99.90
54930;DHT22;40833;53.238;6.576;2023-05-10T00:08:00;13.10;99.90
54930;DHT22;40833;53.238;6.576;2023-05-10T00:10:25;13.10;99.90
54930;DHT22;40833;53.238;6.576;2023-05-10T00:12:51;13.10;99.90
54930;DHT22;40833;53.238;6.576;2023-05-10T00:15:16;13.10;99.90
54930;DHT22;40833;53.238;6.576;2023-05-10T00:17:42;12.90;99.90
54930;DHT22;40833;53.238;6.576;2023-05-10T00:20:08;12.90;99.90
54930;DHT22;40833;53.238;6.576;2023-05-10T00:22:33;12.90;99.90
54930;DHT22;40833;53.238;6.576;2023-05-10T00:24:59;13.00;99.90
54930;DHT22;40833;53.238;6.576;2023-05-10T00:27:24;13.00;99.90
54930;DHT22;40833;53.238;6.576;2023-05-10T00:29:50;12.80;99.90
54930;DHT22;40833;53.238;6.576;2023-05-10T00:32:15;12.80;99.90
54930;DHT22;40833;53.238;6.576;2023-05-10T00:34:41;12.80;99.90
54930;DHT22;40833;53.238;6.576;2023-05-10T00:37:07;12.80;99.90
54930;DHT22;40833;53.238;6.576;2023-05-10T00:39:32;12.80;99.90
54930;DHT22;40833;53.238;6.576;2023-05-10T00:41:58;12.80;99.90
54930;DHT22;40833;53.238;6.576;2023-05-10T00:44:25;12.80;99.90
54930;DHT22;40833;53.238;6.576;2023-05-10T00:46:51;12.80;99.90
54930;DHT22;40833;53.238;6.576;2023-05-10T00:49:16;13.80;99.90
54930;DHT22;40833;53.238;6.576;2023-05-10T00:51:42;12.80;99.90
54930;DHT22;40833;53.238;6.576;2023-05-10T00:54:10;12.60;99.90
54930;DHT22;40833;53.238;6.576;2023-05-10T00:56:36;12.90;99.90
54930;DHT22;40833;53.238;6.576;2023-05-10T00:59:03;12.80;99.90
54930;DHT22;40833;53.238;6.576;2023-05-10T01:01:28;12.80;99.90
54930;DHT22;40833;53.238;6.576;2023-05-10T01:03:55;12.70;99.90
54930;DHT22;40833;53.238;6.576;2023-05-10T01:06:20;12.70;99.90
54930;DHT22;40833;53.238;6.576;2023-05-10T01:08:46;12.60;99.90
54930;DHT22;40833;53.238;6.576;2023-05-10T01:11:12;12.70;99.90
54930;DHT22;40833;53.238;6.576;2023-05-10T01:13:39;12.70;99.90
54930;DHT22;40833;53.238;6.576;2023-05-10T01:16:06;12.70;99.90
54930;DHT22;40833;53.238;6.576;2023-05-10T01:18:36;12.90;99.90
54930;DHT22;40833;53.238;6.576;2023-05-10T01:34:07;12.60;99.90
54930;DHT22;40833;53.238;6.576;2023-05-10T01:36:40;12.70;99.90
54930;DHT22;40833;53.238;6.576;2023-05-10T01:39:29;12.60;99.90
54930;DHT22;40833;53.238;6.576;2023-05-10T01:44:30;12.60;99.90
54930;DHT22;40833;53.238;6.576;2023-05-10T01:47:16;12.60;99.90
54930;DHT22;40833;53.238;6.576;2023-05-10T01:49:47;12.60;99.90
54930;DHT22;40833;53.238;6.576;2023-05-10T01:52:15;12.60;99.90
54930;DHT22;40833;53.238;6.576;2023-05-10T01:54:43;12.50;99.90
54930;DHT22;40833;53.238;6.576;2023-05-10T01:57:09;12.50;99.90
54930;DHT22;40833;53.238;6.576;2023-05-10T01:59:37;12.50;99.90
54930;DHT22;40833;53.238;6.576;2023-05-10T02:02:07;12.60;99.90
54930;DHT22;40833;53.238;6.576;2023-05-10T02:04:37;12.60;99.90
54930;DHT22;40833;53.238;6.576;2023-05-10T02:07:03;12.80;99.90
54930;DHT22;40833;53.238;6.576;2023-05-10T02:09:30;11.90;99.90
54930;DHT22;40833;53.238;6.576;2023-05-10T02:11:57;12.40;99.90
54930;DHT22;40833;53.238;6.576;2023-05-10T02:14:24;12.40;99.90
54930;DHT22;40833;53.238;6.576;2023-05-10T02:16:51;12.40;99.90
54930;DHT22;40833;53.238;6.576;2023-05-10T02:19:18;12.50;99.90
54930;DHT22;40833;53.238;6.576;2023-05-10T02:21:44;12.50;99.90
54930;DHT22;40833;53.238;6.576;2023-05-10T02:24:10;12.50;99.90
54930;DHT22;40833;53.238;6.576;2023-05-10T02:26:36;12.40;99.90
54930;DHT22;40833;53.238;6.576;2023-05-10T02:29:03;12.40;99.90
54930;DHT22;40833;53.238;6.576;2023-05-10T02:31:33;12.30;99.90
54930;DHT22;40833;53.238;6.576;2023-05-10T02:34:00;12.30;99.90
54930;DHT22;40833;53.238;6.576;2023-05-10T02:36:27;12.30;99.90
54930;DHT22;40833;53.238;6.576;2023-05-10T02:38:53;12.30;99.90
54930;DHT22;40833;53.238;6.576;2023-05-10T02:41:19;12.30;99.90
54930;DHT22;40833;53.238;6.576;2023-05-10T02:43:46;12.40;99.90
54930;DHT22;40833;53.238;6.576;2023-05-10T02:46:12;12.30;99.90
54930;DHT22;40833;53.238;6.576;2023-05-10T02:48:38;12.40;99.90
54930;DHT22;40833;53.238;6.576;2023-05-10T02:51:04;12.20;99.90
54930;DHT22;40833;53.238;6.576;2023-05-10T02:53:31;12.30;99.90
54930;DHT22;40833;53.238;6.576;2023-05-10T02:55:58;12.30;99.90
54930;DHT22;40833;53.238;6.576;2023-05-10T02:58:24;12.30;99.90
54930;DHT22;40833;53.238;6.576;2023-05-10T03:00:50;12.20;99.90
54930;DHT22;40833;53.238;6.576;2023-05-10T03:03:16;12.30;99.90
54930;DHT22;40833;53.238;6.576;2023-05-10T03:05:41;12.30;99.90
54930;DHT22;40833;53.238;6.576;2023-05-10T03:08:07;12.20;99.90
54930;DHT22;40833;53.238;6.576;2023-05-10T03:10:33;12.20;99.90
54930;DHT22;40833;53.238;6.576;2023-05-10T03:13:09;12.30;99.90
54930;DHT22;40833;53.238;6.576;2023-05-10T03:18:09;12.30;99.90
54930;DHT22;40833;53.238;6.576;2023-05-10T03:20:38;12.10;99.90
54930;DHT22;40833;53.238;6.576;2023-05-10T03:25:41;12.10;99.90
54930;DHT22;40833;53.238;6.576;2023-05-10T03:28:09;12.20;99.90
54930;DHT22;40833;53.238;6.576;2023-05-10T03:30:35;12.30;99.90
54930;DHT22;40833;53.238;6.576;2023-05-10T03:33:04;12.20;99.90
54930;DHT22;40833;53.238;6.576;2023-05-10T03:35:31;12.30;99.90
54930;DHT22;40833;53.238;6.576;2023-05-10T03:37:57;12.20;99.90
54930;DHT22;40833;53.238;6.576;2023-05-10T03:40:22;12.20;99.90
54930;DHT22;40833;53.238;6.576;2023-05-10T03:42:49;12.20;99.90
54930;DHT22;40833;53.238;6.576;2023-05-10T03:45:14;12.20;99.90
54930;DHT22;40833;53.238;6.576;2023-05-10T03:47:40;11.80;99.90
54930;DHT22;40833;53.238;6.576;2023-05-10T03:50:06;12.30;99.90
54930;DHT22;40833;53.238;6.576;2023-05-10T03:52:32;12.40;99.90
54930;DHT22;40833;53.238;6.576;2023-05-10T03:54:58;12.20;99.90
54930;DHT22;40833;53.238;6.576;2023-05-10T03:57:24;12.70;99.90
54930;DHT22;40833;53.238;6.576;2023-05-10T03:59:49;12.20;99.90
54930;DHT22;40833;53.238;6.576;2023-05-10T04:02:15;12.20;99.90
54930;DHT22;40833;53.238;6.576;2023-05-10T04:04:40;12.30;99.90
54930;DHT22;40833;53.238;6.576;2023-05-10T04:07:07;12.20;99.90
54930;DHT22;40833;53.238;6.576;2023-05-10T04:09:32;12.20;99.90
54930;DHT22;40833;53.238;6.576;2023-05-10T04:11:58;12.10;99.90
54930;DHT22;40833;53.238;6.576;2023-05-10T04:14:24;12.20;99.90
54930;DHT22;40833;53.238;6.576;2023-05-10T04:16:49;12.10;99.90
54930;DHT22;40833;53.238;6.576;2023-05-10T04:19:15;12.40;99.90
54930;DHT22;40833;53.238;6.576;2023-05-10T04:21:41;12.10;99.90
54930;DHT22;40833;53.238;6.576;2023-05-10T04:24:06;12.10;99.90
54930;DHT22;40833;53.238;6.576;2023-05-10T04:26:32;12.00;99.90
54930;DHT22;40833;53.238;6.576;2023-05-10T04:28:57;12.10;99.90
54930;DHT22;40833;53.238;6.576;2023-05-10T04:31:23;12.00;99.90
54930;DHT22;40833;53.238;6.576;2023-05-10T04:33:48;12.00;99.90
54930;DHT22;40833;53.238;6.576;2023-05-10T04:36:15;11.90;99.90
54930;DHT22;40833;53.238;6.576;2023-05-10T04:38:40;12.00;99.90
54930;DHT22;40833;53.238;6.576;2023-05-10T04:41:07;12.10;99.90
54930;DHT22;40833;53.238;6.576;2023-05-10T04:43:32;12.10;99.90
54930;DHT22;40833;53.238;6.576;2023-05-10T04:45:58;12.00;99.90
54930;DHT22;40833;53.238;6.576;2023-05-10T04:48:24;11.90;99.90
54930;DHT22;40833;53.238;6.576;2023-05-10T04:50:49;12.10;99.90
54930;DHT22;40833;53.238;6.576;2023-05-10T04:53:15;12.00;99.90
54930;DHT22;40833;53.238;6.576;2023-05-10T04:55:40;12.00;99.90
54930;DHT22;40833;53.238;6.576;2023-05-10T04:58:06;11.90;99.90
54930;DHT22;40833;53.238;6.576;2023-05-10T05:00:32;12.00;99.90
54930;DHT22;40833;53.238;6.576;2023-05-10T05:02:58;12.00;99.90
54930;DHT22;40833;53.238;6.576;2023-05-10T05:05:24;12.00;99.90
54930;DHT22;40833;53.238;6.576;2023-05-10T05:07:49;11.90;99.90
54930;DHT22;40833;53.238;6.576;2023-05-10T05:10:15;12.00;99.90
54930;DHT22;40833;53.238;6.576;2023-05-10T05:12:41;12.10;99.90
54930;DHT22;40833;53.238;6.576;2023-05-10T05:15:06;11.90;99.90
54930;DHT22;40833;53.238;6.576;2023-05-10T05:17:34;12.00;99.90
54930;DHT22;40833;53.238;6.576;2023-05-10T05:20:00;11.70;99.90
54930;DHT22;40833;53.238;6.576;2023-05-10T05:22:25;12.20;99.90
54930;DHT22;40833;53.238;6.576;2023-05-10T05:24:53;12.00;99.90
54930;DHT22;40833;53.238;6.576;2023-05-10T05:27:19;11.90;99.90
54930;DHT22;40833;53.238;6.576;2023-05-10T05:29:47;12.20;99.90
54930;DHT22;40833;53.238;6.576;2023-05-10T05:32:13;11.90;99.90
54930;DHT22;40833;53.238;6.576;2023-05-10T05:34:38;12.10;99.90
54930;DHT22;40833;53.238;6.576;2023-05-10T05:37:04;12.10;99.90
54930;DHT22;40833;53.238;6.576;2023-05-10T05:39:30;12.00;99.90
54930;DHT22;40833;53.238;6.576;2023-05-10T05:41:55;12.20;99.90
54930;DHT22;40833;53.238;6.576;2023-05-10T05:44:21;12.10;99.90
54930;DHT22;40833;53.238;6.576;2023-05-10T05:46:46;12.10;99.90
54930;DHT22;40833;53.238;6.576;2023-05-10T05:49:12;12.20;99.90
54930;DHT22;40833;53.238;6.576;2023-05-10T05:51:37;12.10;99.90
54930;DHT22;40833;53.238;6.576;2023-05-10T05:54:03;12.20;99.90
54930;DHT22;40833;53.238;6.576;2023-05-10T05:56:29;12.30;99.90
54930;DHT22;40833;53.238;6.576;2023-05-10T05:58:55;12.20;99.90
54930;DHT22;40833;53.238;6.576;2023-05-10T06:01:20;12.20;99.90
54930;DHT22;40833;53.238;6.576;2023-05-10T06:03:46;12.20;99.90
54930;DHT22;40833;53.238;6.576;2023-05-10T06:06:12;12.20;99.90
54930;DHT22;40833;53.238;6.576;2023-05-10T06:08:37;12.80;99.90
54930;DHT22;40833;53.238;6.576;2023-05-10T06:11:03;12.20;99.90
54930;DHT22;40833;53.238;6.576;2023-05-10T06:13:29;12.20;99.90
54930;DHT22;40833;53.238;6.576;2023-05-10T06:16:00;12.20;99.90
54930;DHT22;40833;53.238;6.576;2023-05-10T06:18:26;11.90;99.90
54930;DHT22;40833;53.238;6.576;2023-05-10T06:20:52;12.40;99.90
54930;DHT22;40833;53.238;6.576;2023-05-10T06:23:17;12.20;99.90
54930;DHT22;40833;53.238;6.576;2023-05-10T06:25:43;12.20;99.90
54930;DHT22;40833;53.238;6.576;2023-05-10T06:28:09;12.20;99.90
54930;DHT22;40833;53.238;6.576;2023-05-10T06:30:35;12.10;99.90
54930;DHT22;40833;53.238;6.576;2023-05-10T06:33:01;12.10;99.90
54930;DHT22;40833;53.238;6.576;2023-05-10T06:35:26;12.00;99.90
54930;DHT22;40833;53.238;6.576;2023-05-10T06:37:53;12.10;99.90
54930;DHT22;40833;53.238;6.576;2023-05-10T06:40:18;12.00;99.90
54930;DHT22;40833;53.238;6.576;2023-05-10T06:42:44;12.10;99.90
54930;DHT22;40833;53.238;6.576;2023-05-10T06:45:11;12.10;99.90
54930;DHT22;40833;53.238;6.576;2023-05-10T06:47:36;11.80;99.90
54930;DHT22;40833;53.238;6.576;2023-05-10T06:50:02;12.10;99.90
54930;DHT22;40833;53.238;6.576;2023-05-10T06:52:28;12.10;99.90
54930;DHT22;40833;53.238;6.576;2023-05-10T06:54:54;11.90;99.90
54930;DHT22;40833;53.238;6.576;2023-05-10T06:57:19;11.90;99.90
54930;DHT22;40833;53.238;6.576;2023-05-10T06:59:45;12.00;99.90
54930;DHT22;40833;53.238;6.576;2023-05-10T07:02:11;11.80;99.90
54930;DHT22;40833;53.238;6.576;2023-05-10T07:04:37;12.20;99.90
54930;DHT22;40833;53.238;6.576;2023-05-10T07:07:02;11.90;99.90
54930;DHT22;40833;53.238;6.576;2023-05-10T07:09:28;11.90;99.90
54930;DHT22;40833;53.238;6.576;2023-05-10T07:11:53;11.90;99.90
54930;DHT22;40833;53.238;6.576;2023-05-10T07:14:19;11.90;99.90
54930;DHT22;40833;53.238;6.576;2023-05-10T07:16:44;11.90;99.90
54930;DHT22;40833;53.238;6.576;2023-05-10T07:19:10;11.90;99.90
54930;DHT22;40833;53.238;6.576;2023-05-10T07:21:36;11.80;99.90
54930;DHT22;40833;53.238;6.576;2023-05-10T07:24:01;12.10;99.90
54930;DHT22;40833;53.238;6.576;2023-05-10T07:26:27;11.90;99.90
54930;DHT22;40833;53.238;6.576;2023-05-10T07:28:52;12.00;99.90
54930;DHT22;40833;53.238;6.576;2023-05-10T07:31:18;12.00;99.90
54930;DHT22;40833;53.238;6.576;2023-05-10T07:33:43;13.40;99.90
54930;DHT22;40833;53.238;6.576;2023-05-10T07:36:09;12.10;99.90
54930;DHT22;40833;53.238;6.576;2023-05-10T07:38:35;12.20;99.90
54930;DHT22;40833;53.238;6.576;2023-05-10T07:41:00;12.30;99.90
54930;DHT22;40833;53.238;6.576;2023-05-10T07:43:26;12.20;99.90
54930;DHT22;40833;53.238;6.576;2023-05-10T07:45:51;12.20;99.90
54930;DHT22;40833;53.238;6.576;2023-05-10T07:48:17;12.30;99.90
54930;DHT22;40833;53.238;6.576;2023-05-10T07:50:42;12.50;99.90
54930;DHT22;40833;53.238;6.576;2023-05-10T07:53:08;12.40;99.90
54930;DHT22;40833;53.238;6.576;2023-05-10T07:55:33;12.50;99.90
54930;DHT22;40833;53.238;6.576;2023-05-10T07:57:59;12.50;99.90
54930;DHT22;40833;53.238;6.576;2023-05-10T08:00:26;12.50;99.90
54930;DHT22;40833;53.238;6.576;2023-05-10T08:02:51;12.30;99.90
54930;DHT22;40833;53.238;6.576;2023-05-10T08:05:18;12.50;99.90
54930;DHT22;40833;53.238;6.576;2023-05-10T08:07:43;12.40;99.90
54930;DHT22;40833;53.238;6.576;2023-05-10T08:10:10;12.40;99.90
54930;DHT22;40833;53.238;6.576;2023-05-10T08:12:38;12.10;99.90
54930;DHT22;40833;53.238;6.576;2023-05-10T08:15:04;12.40;99.90
54930;DHT22;40833;53.238;6.576;2023-05-10T08:17:30;12.50;99.90
54930;DHT22;40833;53.238;6.576;2023-05-10T08:19:55;12.80;99.90
54930;DHT22;40833;53.238;6.576;2023-05-10T08:22:21;12.30;99.90
54930;DHT22;40833;53.238;6.576;2023-05-10T08:24:47;12.30;99.90
54930;DHT22;40833;53.238;6.576;2023-05-10T08:27:12;11.20;99.90
54930;DHT22;40833;53.238;6.576;2023-05-10T08:29:38;12.40;99.90
54930;DHT22;40833;53.238;6.576;2023-05-10T08:32:03;12.50;99.90
54930;DHT22;40833;53.238;6.576;2023-05-10T08:34:29;12.50;99.90
54930;DHT22;40833;53.238;6.576;2023-05-10T08:36:56;12.50;99.90
54930;DHT22;40833;53.238;6.576;2023-05-10T08:39:22;12.50;99.90
54930;DHT22;40833;53.238;6.576;2023-05-10T08:41:48;12.50;99.90
54930;DHT22;40833;53.238;6.576;2023-05-10T08:44:16;12.50;99.90
54930;DHT22;40833;53.238;6.576;2023-05-10T08:46:44;12.60;99.90
54930;DHT22;40833;53.238;6.576;2023-05-10T08:49:11;12.60;99.90
54930;DHT22;40833;53.238;6.576;2023-05-10T08:51:39;12.50;99.90
54930;DHT22;40833;53.238;6.576;2023-05-10T08:54:05;12.80;99.90
54930;DHT22;40833;53.238;6.576;2023-05-10T08:56:31;12.60;99.90
54930;DHT22;40833;53.238;6.576;2023-05-10T08:58:57;12.80;99.90
54930;DHT22;40833;53.238;6.576;2023-05-10T09:01:22;12.70;99.90
54930;DHT22;40833;53.238;6.576;2023-05-10T09:03:48;12.90;99.90
54930;DHT22;40833;53.238;6.576;2023-05-10T09:06:16;12.70;99.90
54930;DHT22;40833;53.238;6.576;2023-05-10T09:08:42;12.60;99.90
54930;DHT22;40833;53.238;6.576;2023-05-10T09:11:08;12.70;99.90
54930;DHT22;40833;53.238;6.576;2023-05-10T09:13:35;12.80;99.90
54930;DHT22;40833;53.238;6.576;2023-05-10T09:16:01;12.80;99.90
54930;DHT22;40833;53.238;6.576;2023-05-10T09:18:27;12.90;99.90
54930;DHT22;40833;53.238;6.576;2023-05-10T09:20:53;12.80;99.90
54930;DHT22;40833;53.238;6.576;2023-05-10T09:23:19;13.00;99.90
54930;DHT22;40833;53.238;6.576;2023-05-10T09:25:45;13.10;99.90
54930;DHT22;40833;53.238;6.576;2023-05-10T09:28:11;13.10;99.90
54930;DHT22;40833;53.238;6.576;2023-05-10T09:30:37;13.10;99.90
54930;DHT22;40833;53.238;6.576;2023-05-10T09:33:02;13.40;99.90
54930;DHT22;40833;53.238;6.576;2023-05-10T09:35:30;13.60;99.90
54930;DHT22;40833;53.238;6.576;2023-05-10T09:37:57;13.70;99.90
54930;DHT22;40833;53.238;6.576;2023-05-10T09:40:24;13.70;99.90
54930;DHT22;40833;53.238;6.576;2023-05-10T09:45:18;13.80;99.90
54930;DHT22;40833;53.238;6.576;2023-05-10T09:47:45;13.60;99.90
54930;DHT22;40833;53.238;6.576;2023-05-10T09:50:11;13.90;99.90
54930;DHT22;40833;53.238;6.576;2023-05-10T09:52:55;13.80;99.90
54930;DHT22;40833;53.238;6.576;2023-05-10T09:55:25;13.80;99.90
54930;DHT22;40833;53.238;6.576;2023-05-10T09:58:00;13.90;99.90
54930;DHT22;40833;53.238;6.576;2023-05-10T10:00:26;13.90;99.90
54930;DHT22;40833;53.238;6.576;2023-05-10T10:02:58;13.80;99.90
54930;DHT22;40833;53.238;6.576;2023-05-10T10:05:28;13.80;99.90
54930;DHT22;40833;53.238;6.576;2023-05-10T10:07:54;13.70;99.90
54930;DHT22;40833;53.238;6.576;2023-05-10T10:10:20;13.80;99.90
54930;DHT22;40833;53.238;6.576;2023-05-10T10:12:46;13.90;99.90
54930;DHT22;40833;53.238;6.576;2023-05-10T10:15:11;13.90;99.90
54930;DHT22;40833;53.238;6.576;2023-05-10T10:17:37;14.10;99.90
54930;DHT22;40833;53.238;6.576;2023-05-10T10:20:06;17.30;99.90
54930;DHT22;40833;53.238;6.576;2023-05-10T10:22:32;14.20;99.90
54930;DHT22;40833;53.238;6.576;2023-05-10T10:24:58;14.30;99.90
54930;DHT22;40833;53.238;6.576;2023-05-10T10:35:31;14.60;99.90
54930;DHT22;40833;53.238;6.576;2023-05-10T10:37:57;18.70;99.90
54930;DHT22;40833;53.238;6.576;2023-05-10T10:42:51;14.70;99.90
54930;DHT22;40833;53.238;6.576;2023-05-10T10:45:17;14.90;99.90
54930;DHT22;40833;53.238;6.576;2023-05-10T10:47:42;15.00;99.90
54930;DHT22;40833;53.238;6.576;2023-05-10T10:50:09;15.10;99.90
54930;DHT22;40833;53.238;6.576;2023-05-10T10:57:43;15.20;99.90
54930;DHT22;40833;53.238;6.576;2023-05-10T11:02:46;15.30;99.90
54930;DHT22;40833;53.238;6.576;2023-05-10T11:07:58;15.20;99.90
54930;DHT22;40833;53.238;6.576;2023-05-10T11:10:24;15.20;99.90
54930;DHT22;40833;53.238;6.576;2023-05-10T11:12:58;15.20;99.90
54930;DHT22;40833;53.238;6.576;2023-05-10T11:15:32;15.30;99.90
54930;DHT22;40833;53.238;6.576;2023-05-10T11:17:58;15.20;99.90
54930;DHT22;40833;53.238;6.576;2023-05-10T11:20:27;15.20;99.90
54930;DHT22;40833;53.238;6.576;2023-05-10T11:23:00;15.20;99.90
54930;DHT22;40833;53.238;6.576;2023-05-10T11:25:39;15.20;99.90
54930;DHT22;40833;53.238;6.576;2023-05-10T11:28:05;15.30;99.90
54930;DHT22;40833;53.238;6.576;2023-05-10T11:30:31;15.40;99.90
54930;DHT22;40833;53.238;6.576;2023-05-10T11:32:57;15.60;99.90
54930;DHT22;40833;53.238;6.576;2023-05-10T11:35:22;15.70;99.90
54930;DHT22;40833;53.238;6.576;2023-05-10T11:37:48;15.70;99.90
54930;DHT22;40833;53.238;6.576;2023-05-10T11:40:14;15.70;99.90
54930;DHT22;40833;53.238;6.576;2023-05-10T11:42:39;15.70;99.90
54930;DHT22;40833;53.238;6.576;2023-05-10T11:45:05;15.60;99.90
54930;DHT22;40833;53.238;6.576;2023-05-10T11:47:31;15.60;99.90
54930;DHT22;40833;53.238;6.576;2023-05-10T11:49:57;15.70;99.90
54930;DHT22;40833;53.238;6.576;2023-05-10T11:52:23;15.70;99.90
54930;DHT22;40833;53.238;6.576;2023-05-10T11:54:52;15.80;99.90
54930;DHT22;40833;53.238;6.576;2023-05-10T11:57:18;15.70;99.90
54930;DHT22;40833;53.238;6.576;2023-05-10T11:59:45;15.90;99.90
54930;DHT22;40833;53.238;6.576;2023-05-10T12:02:11;16.00;99.90
54930;DHT22;40833;53.238;6.576;2023-05-10T12:04:37;16.10;99.90
54930;DHT22;40833;53.238;6.576;2023-05-10T12:07:03;16.10;99.90
54930;DHT22;40833;53.238;6.576;2023-05-10T12:09:28;16.10;99.90
54930;DHT22;40833;53.238;6.576;2023-05-10T12:11:57;16.00;99.90
54930;DHT22;40833;53.238;6.576;2023-05-10T12:14:22;14.60;99.90
54930;DHT22;40833;53.238;6.576;2023-05-10T12:16:49;15.70;99.90
54930;DHT22;40833;53.238;6.576;2023-05-10T12:19:19;15.50;99.90
54930;DHT22;40833;53.238;6.576;2023-05-10T12:21:47;15.50;99.90
54930;DHT22;40833;53.238;6.576;2023-05-10T12:24:13;15.40;99.90
54930;DHT22;40833;53.238;6.576;2023-05-10T12:26:41;15.30;99.90
54930;DHT22;40833;53.238;6.576;2023-05-10T12:29:19;15.30;99.90
54930;DHT22;40833;53.238;6.576;2023-05-10T12:31:48;15.20;99.90
54930;DHT22;40833;53.238;6.576;2023-05-10T12:34:22;15.20;99.90
54930;DHT22;40833;53.238;6.576;2023-05-10T12:36:49;15.10;99.90
54930;DHT22;40833;53.238;6.576;2023-05-10T12:39:15;15.10;99.90
54930;DHT22;40833;53.238;6.576;2023-05-10T12:41:41;15.00;99.90
54930;DHT22;40833;53.238;6.576;2023-05-10T12:44:06;15.00;99.90
54930;DHT22;40833;53.238;6.576;2023-05-10T12:46:32;15.00;99.90
54930;DHT22;40833;53.238;6.576;2023-05-10T12:48:57;14.90;99.90
54930;DHT22;40833;53.238;6.576;2023-05-10T12:51:23;14.90;99.90
54930;DHT22;40833;53.238;6.576;2023-05-10T12:53:48;14.90;99.90
54930;DHT22;40833;53.238;6.576;2023-05-10T12:56:14;15.10;99.90
54930;DHT22;40833;53.238;6.576;2023-05-10T12:58:40;15.20;99.90
54930;DHT22;40833;53.238;6.576;2023-05-10T13:01:06;15.40;99.90
54930;DHT22;40833;53.238;6.576;2023-05-10T13:03:31;15.30;99.90
54930;DHT22;40833;53.238;6.576;2023-05-10T13:05:57;15.40;99.90
54930;DHT22;40833;53.238;6.576;2023-05-10T13:08:23;15.40;99.90
54930;DHT22;40833;53.238;6.576;2023-05-10T13:10:48;15.40;99.90
54930;DHT22;40833;53.238;6.576;2023-05-10T13:13:14;15.50;99.90
54930;DHT22;40833;53.238;6.576;2023-05-10T13:15:40;15.50;99.90
54930;DHT22;40833;53.238;6.576;2023-05-10T13:18:06;15.50;99.90
54930;DHT22;40833;53.238;6.576;2023-05-10T13:20:31;15.40;99.90
54930;DHT22;40833;53.238;6.576;2023-05-10T13:22:57;15.60;99.90
54930;DHT22;40833;53.238;6.576;2023-05-10T13:25:22;15.70;99.90
54930;DHT22;40833;53.238;6.576;2023-05-10T13:27:48;15.80;99.90
54930;DHT22;40833;53.238;6.576;2023-05-10T13:30:14;15.90;99.90
54930;DHT22;40833;53.238;6.576;2023-05-10T13:32:40;16.00;99.90
54930;DHT22;40833;53.238;6.576;2023-05-10T13:35:05;16.00;99.90
54930;DHT22;40833;53.238;6.576;2023-05-10T13:37:31;16.00;99.90
54930;DHT22;40833;53.238;6.576;2023-05-10T13:39:57;16.10;99.90
54930;DHT22;40833;53.238;6.576;2023-05-10T13:42:23;12.70;99.90
54930;DHT22;40833;53.238;6.576;2023-05-10T13:44:49;16.20;99.90
54930;DHT22;40833;53.238;6.576;2023-05-10T13:47:14;16.20;99.90
54930;DHT22;40833;53.238;6.576;2023-05-10T13:49:40;16.10;99.90
54930;DHT22;40833;53.238;6.576;2023-05-10T13:52:05;16.00;99.90
54930;DHT22;40833;53.238;6.576;2023-05-10T13:54:32;16.00;99.90
54930;DHT22;40833;53.238;6.576;2023-05-10T13:56:58;16.40;99.90
54930;DHT22;40833;53.238;6.576;2023-05-10T13:59:24;16.00;99.90
54930;DHT22;40833;53.238;6.576;2023-05-10T14:01:49;16.00;99.90
54930;DHT22;40833;53.238;6.576;2023-05-10T14:04:15;16.00;99.90
54930;DHT22;40833;53.238;6.576;2023-05-10T14:06:40;16.00;99.90
54930;DHT22;40833;53.238;6.576;2023-05-10T14:09:06;16.10;99.90
54930;DHT22;40833;53.238;6.576;2023-05-10T14:11:32;16.00;99.90
54930;DHT22;40833;53.238;6.576;2023-05-10T14:13:57;16.00;99.90
54930;DHT22;40833;53.238;6.576;2023-05-10T14:16:23;16.00;99.90
54930;DHT22;40833;53.238;6.576;2023-05-10T14:18:48;16.00;99.90
54930;DHT22;40833;53.238;6.576;2023-05-10T14:21:14;15.90;99.90
54930;DHT22;40833;53.238;6.576;2023-05-10T14:23:40;15.80;99.90
54930;DHT22;40833;53.238;6.576;2023-05-10T14:26:06;15.80;99.90
54930;DHT22;40833;53.238;6.576;2023-05-10T14:28:31;15.80;99.90
54930;DHT22;40833;53.238;6.576;2023-05-10T14:30:58;15.80;99.90
54930;DHT22;40833;53.238;6.576;2023-05-10T14:33:24;15.80;99.90
54930;DHT22;40833;53.238;6.576;2023-05-10T14:35:50;16.00;99.90
54930;DHT22;40833;53.238;6.576;2023-05-10T14:38:16;16.10;99.90
54930;DHT22;40833;53.238;6.576;2023-05-10T14:40:41;16.30;99.90
54930;DHT22;40833;53.238;6.576;2023-05-10T14:43:08;16.50;99.90
54930;DHT22;40833;53.238;6.576;2023-05-10T14:45:34;16.60;99.90
54930;DHT22;40833;53.238;6.576;2023-05-10T14:47:59;16.70;99.90
54930;DHT22;40833;53.238;6.576;2023-05-10T14:50:25;16.60;99.90
54930;DHT22;40833;53.238;6.576;2023-05-10T14:52:51;16.70;99.90
54930;DHT22;40833;53.238;6.576;2023-05-10T14:55:16;16.70;99.90
54930;DHT22;40833;53.238;6.576;2023-05-10T14:57:42;20.10;99.90
54930;DHT22;40833;53.238;6.576;2023-05-10T15:00:09;16.70;99.90
54930;DHT22;40833;53.238;6.576;2023-05-10T15:02:35;16.70;99.90
54930;DHT22;40833;53.238;6.576;2023-05-10T15:05:00;16.80;99.90
54930;DHT22;40833;53.238;6.576;2023-05-10T15:07:26;16.90;99.90
54930;DHT22;40833;53.238;6.576;2023-05-10T15:09:51;17.00;99.90
54930;DHT22;40833;53.238;6.576;2023-05-10T15:12:18;17.00;99.90
54930;DHT22;40833;53.238;6.576;2023-05-10T15:14:43;17.20;99.90
54930;DHT22;40833;53.238;6.576;2023-05-10T15:17:09;17.40;99.90
54930;DHT22;40833;53.238;6.576;2023-05-10T15:19:35;18.40;99.90
54930;DHT22;40833;53.238;6.576;2023-05-10T15:22:01;17.40;99.90
54930;DHT22;40833;53.238;6.576;2023-05-10T15:24:27;17.30;99.90
54930;DHT22;40833;53.238;6.576;2023-05-10T15:26:53;17.20;99.90
54930;DHT22;40833;53.238;6.576;2023-05-10T15:29:19;17.20;99.90
54930;DHT22;40833;53.238;6.576;2023-05-10T15:31:48;17.40;99.90
54930;DHT22;40833;53.238;6.576;2023-05-10T15:34:14;17.20;99.90
54930;DHT22;40833;53.238;6.576;2023-05-10T15:36:40;17.00;99.90
54930;DHT22;40833;53.238;6.576;2023-05-10T15:39:05;16.90;99.90
54930;DHT22;40833;53.238;6.576;2023-05-10T15:41:31;16.60;99.90
54930;DHT22;40833;53.238;6.576;2023-05-10T15:43:57;16.50;99.90
54930;DHT22;40833;53.238;6.576;2023-05-10T15:46:25;16.40;99.90
54930;DHT22;40833;53.238;6.576;2023-05-10T15:48:50;16.20;99.90
54930;DHT22;40833;53.238;6.576;2023-05-10T15:51:16;16.10;99.90
54930;DHT22;40833;53.238;6.576;2023-05-10T15:53:42;15.80;99.90
54930;DHT22;40833;53.238;6.576;2023-05-10T15:56:07;15.90;99.90
54930;DHT22;40833;53.238;6.576;2023-05-10T15:58:33;15.70;99.90
54930;DHT22;40833;53.238;6.576;2023-05-10T16:00:59;15.50;99.90
54930;DHT22;40833;53.238;6.576;2023-05-10T16:03:24;15.40;99.90
54930;DHT22;40833;53.238;6.576;2023-05-10T16:05:50;15.30;99.90
54930;DHT22;40833;53.238;6.576;2023-05-10T16:08:16;15.10;99.90